createdAt,value
2017-04-11T00:00:24.124Z,6.70
2017-04-11T00:01:23.835Z,6.70
2017-04-11T00:02:23.609Z,6.70
2017-04-11T00:03:23.329Z,6.70
2017-04-11T00:04:23.007Z,6.80
2017-04-11T00:05:22.788Z,6.80
2017-04-11T00:06:22.600Z,6.80
2017-04-11T00:07:22.309Z,6.90
2017-04-11T00:08:22.187Z,6.90
2017-04-11T00:09:21.945Z,6.90
2017-04-11T00:10:21.699Z,6.90
2017-04-11T00:11:21.397Z,7.00
2017-04-11T00:12:21.184Z,7.00
2017-04-11T00:13:20.974Z,7.00
2017-04-11T00:14:20.692Z,7.00
2017-04-11T00:15:20.435Z,7.00
2017-04-11T00:16:20.180Z,7.00
2017-04-11T00:17:19.834Z,7.00
2017-04-11T00:18:19.547Z,7.00
2017-04-11T00:19:19.275Z,7.00
2017-04-11T00:20:18.984Z,7.00
2017-04-11T00:21:18.706Z,7.10
2017-04-11T00:22:18.419Z,7.10
2017-04-11T00:23:18.202Z,7.10
2017-04-11T00:24:18.005Z,7.10
2017-04-11T00:25:17.719Z,7.10
2017-04-11T00:26:17.539Z,7.10
2017-04-11T00:27:17.277Z,7.10
2017-04-11T00:28:17.020Z,7.10
2017-04-11T00:29:16.845Z,7.20
2017-04-11T00:30:16.581Z,7.20
2017-04-11T00:31:16.413Z,7.10
2017-04-11T00:32:16.128Z,7.20
2017-04-11T00:33:16.870Z,7.20
2017-04-11T00:34:16.614Z,7.20
2017-04-11T00:35:16.311Z,7.20
2017-04-11T00:36:15.991Z,7.20
2017-04-11T00:37:15.660Z,7.30
2017-04-11T00:38:15.415Z,7.30
2017-04-11T00:39:15.088Z,7.30
2017-04-11T00:40:14.788Z,7.30
2017-04-11T00:41:14.509Z,7.30
2017-04-11T00:42:14.172Z,7.40
2017-04-11T00:43:13.853Z,7.40
2017-04-11T00:44:13.513Z,7.40
2017-04-11T00:45:13.491Z,7.40
2017-04-11T00:46:13.188Z,7.50
2017-04-11T00:47:12.902Z,7.50
2017-04-11T00:48:12.797Z,7.50
2017-04-11T00:49:12.544Z,7.60
2017-04-11T00:50:12.277Z,7.60
2017-04-11T00:51:11.964Z,7.60
2017-04-11T00:52:11.740Z,7.60
2017-04-11T00:53:11.448Z,7.60
2017-04-11T00:54:12.260Z,7.60
2017-04-11T00:55:12.068Z,7.60
2017-04-11T00:56:11.742Z,7.50
2017-04-11T00:57:11.786Z,7.50
2017-04-11T00:58:11.507Z,7.50
2017-04-11T00:59:11.233Z,7.50
2017-04-11T01:00:10.951Z,7.40
2017-04-11T01:01:10.677Z,7.40
2017-04-11T01:02:10.436Z,7.40
2017-04-11T01:03:10.177Z,7.40
2017-04-11T01:04:09.920Z,7.40
2017-04-11T01:05:09.670Z,7.30
2017-04-11T01:06:09.461Z,7.30
2017-04-11T01:07:09.191Z,7.20
2017-04-11T01:08:08.920Z,7.10
2017-04-11T01:09:08.965Z,7.10
2017-04-11T01:10:08.708Z,7.00
2017-04-11T01:11:08.476Z,7.00
2017-04-11T01:12:08.213Z,6.90
2017-04-11T01:13:08.001Z,6.90
2017-04-11T01:14:07.744Z,6.90
2017-04-11T01:15:07.673Z,6.70
2017-04-11T01:16:07.372Z,6.50
2017-04-11T01:17:07.122Z,6.50
2017-04-11T01:18:06.953Z,6.40
2017-04-11T01:19:06.686Z,6.40
2017-04-11T01:20:06.401Z,6.40
2017-04-11T01:21:06.096Z,6.40
2017-04-11T01:22:05.777Z,6.40
2017-04-11T01:23:05.456Z,6.30
2017-04-11T01:24:05.409Z,6.30
2017-04-11T01:25:05.141Z,6.30
2017-04-11T01:26:04.879Z,6.20
2017-04-11T01:27:04.625Z,6.20
2017-04-11T01:28:04.337Z,6.20
2017-04-11T01:29:04.065Z,6.20
2017-04-11T01:30:03.788Z,6.20
2017-04-11T01:31:03.539Z,6.10
2017-04-11T01:32:03.253Z,6.10
2017-04-11T01:33:02.980Z,6.10
2017-04-11T01:34:02.664Z,6.10
2017-04-11T01:35:02.393Z,6.10
2017-04-11T01:36:02.224Z,6.10
2017-04-11T01:37:01.920Z,6.10
2017-04-11T01:38:32.227Z,6.10
2017-04-11T01:39:31.936Z,6.00
2017-04-11T01:40:31.628Z,6.10
2017-04-11T01:41:31.317Z,6.00
2017-04-11T01:42:31.030Z,6.00
2017-04-11T01:43:30.773Z,6.00
2017-04-11T01:44:30.520Z,6.10
2017-04-11T01:45:30.237Z,6.00
2017-04-11T01:46:30.036Z,6.00
2017-04-11T01:47:29.755Z,6.00
2017-04-11T01:48:29.711Z,6.00
2017-04-11T01:49:29.487Z,6.00
2017-04-11T01:50:29.218Z,6.00
2017-04-11T01:51:29.013Z,5.90
2017-04-11T01:52:29.332Z,5.90
2017-04-11T01:53:29.054Z,5.90
2017-04-11T01:54:28.749Z,5.90
2017-04-11T01:55:28.498Z,5.90
2017-04-11T01:56:28.178Z,5.90
2017-04-11T01:57:27.852Z,5.80
2017-04-11T01:58:27.589Z,5.80
2017-04-11T01:59:27.356Z,5.80
2017-04-11T02:00:27.074Z,5.80
2017-04-11T02:01:26.804Z,5.80
2017-04-11T02:02:26.842Z,5.80
2017-04-11T02:03:26.552Z,5.80
2017-04-11T02:04:26.267Z,5.80
2017-04-11T02:05:26.009Z,5.80
2017-04-11T02:06:25.748Z,5.80
2017-04-11T02:07:25.440Z,5.80
2017-04-11T02:08:25.253Z,5.70
2017-04-11T02:09:25.128Z,5.80
2017-04-11T02:10:24.917Z,5.80
2017-04-11T02:11:24.756Z,5.80
2017-04-11T02:12:24.471Z,5.70
2017-04-11T02:13:24.168Z,5.80
2017-04-11T02:14:23.845Z,5.80
2017-04-11T02:15:23.560Z,5.80
2017-04-11T02:16:23.320Z,5.80
2017-04-11T02:17:23.049Z,5.70
2017-04-11T02:18:22.745Z,5.70
2017-04-11T02:19:22.473Z,5.70
2017-04-11T02:20:22.278Z,5.70
2017-04-11T02:21:21.977Z,5.70
2017-04-11T02:22:21.702Z,5.70
2017-04-11T02:23:21.393Z,5.70
2017-04-11T02:24:21.068Z,5.70
2017-04-11T02:25:20.756Z,5.70
2017-04-11T02:26:20.453Z,5.70
2017-04-11T02:27:20.162Z,5.60
2017-04-11T02:28:19.973Z,5.70
2017-04-11T02:29:19.641Z,5.70
2017-04-11T02:30:19.343Z,5.70
2017-04-11T02:31:19.041Z,5.70
2017-04-11T02:32:19.509Z,5.60
2017-04-11T02:33:19.208Z,5.70
2017-04-11T02:34:18.946Z,5.70
2017-04-11T02:35:18.703Z,5.70
2017-04-11T02:36:18.408Z,5.70
2017-04-11T02:37:18.121Z,5.70
2017-04-11T02:38:17.812Z,5.70
2017-04-11T02:39:17.564Z,5.70
2017-04-11T02:40:17.299Z,5.70
2017-04-11T02:41:17.055Z,5.70
2017-04-11T02:42:16.799Z,5.70
2017-04-11T02:43:16.484Z,5.70
2017-04-11T02:44:16.211Z,5.70
2017-04-11T02:45:15.904Z,5.70
2017-04-11T02:46:15.633Z,5.70
2017-04-11T02:47:15.360Z,5.70
2017-04-11T02:48:15.016Z,5.70
2017-04-11T02:49:14.690Z,5.70
2017-04-11T02:50:14.407Z,5.70
2017-04-11T02:51:14.274Z,5.70
2017-04-11T02:52:14.124Z,5.60
2017-04-11T02:53:14.096Z,5.70
2017-04-11T02:54:13.764Z,5.70
2017-04-11T02:55:13.551Z,5.60
2017-04-11T02:56:13.276Z,5.70
2017-04-11T02:57:13.004Z,5.70
2017-04-11T02:58:12.724Z,5.60
2017-04-11T02:59:12.428Z,5.60
2017-04-11T03:00:12.183Z,5.60
2017-04-11T03:01:11.929Z,5.60
2017-04-11T03:02:11.620Z,5.60
2017-04-11T03:03:11.375Z,5.60
2017-04-11T03:04:11.378Z,5.60
2017-04-11T03:05:11.085Z,5.60
2017-04-11T03:06:10.782Z,5.60
2017-04-11T03:07:10.486Z,5.60
2017-04-11T03:08:10.494Z,5.60
2017-04-11T03:09:10.213Z,5.50
2017-04-11T03:10:09.932Z,5.50
2017-04-11T03:11:09.654Z,5.50
2017-04-11T03:12:09.359Z,5.50
2017-04-11T03:13:09.034Z,5.50
2017-04-11T03:14:08.722Z,5.60
2017-04-11T03:15:08.495Z,5.50
2017-04-11T03:16:08.602Z,5.50
2017-04-11T03:17:08.353Z,5.60
2017-04-11T03:18:08.271Z,5.60
2017-04-11T03:19:07.969Z,5.60
2017-04-11T03:20:07.665Z,5.50
2017-04-11T03:21:07.345Z,5.50
2017-04-11T03:22:07.074Z,5.50
2017-04-11T03:23:06.763Z,5.50
2017-04-11T03:24:06.460Z,5.50
2017-04-11T03:25:06.227Z,5.50
2017-04-11T03:26:05.922Z,5.50
2017-04-11T03:27:05.972Z,5.50
2017-04-11T03:28:06.008Z,5.50
2017-04-11T03:29:05.713Z,5.40
2017-04-11T03:30:05.394Z,5.40
2017-04-11T03:31:05.062Z,5.30
2017-04-11T03:32:04.752Z,5.30
2017-04-11T03:33:04.466Z,5.30
2017-04-11T03:34:04.153Z,5.30
2017-04-11T03:35:03.856Z,5.30
2017-04-11T03:37:03.588Z,5.20
2017-04-11T03:38:04.010Z,5.20
2017-04-11T03:39:03.937Z,5.20
2017-04-11T03:40:04.076Z,5.20
2017-04-11T03:41:03.916Z,5.20
2017-04-11T03:42:03.664Z,5.10
2017-04-11T03:43:03.380Z,5.10
2017-04-11T03:44:03.134Z,5.10
2017-04-11T03:45:02.892Z,5.10
2017-04-11T03:46:02.629Z,5.10
2017-04-11T03:47:02.368Z,5.10
2017-04-11T03:48:02.052Z,5.10
2017-04-11T03:49:01.783Z,5.10
2017-04-11T03:50:01.491Z,5.10
2017-04-11T03:51:01.207Z,5.00
2017-04-11T03:52:00.936Z,5.10
2017-04-11T03:53:00.599Z,5.10
2017-04-11T03:54:00.342Z,5.10
2017-04-11T03:55:00.020Z,5.00
2017-04-11T03:55:59.719Z,5.00
2017-04-11T03:56:59.432Z,5.10
2017-04-11T03:57:59.164Z,5.00
2017-04-11T03:58:58.929Z,5.00
2017-04-11T03:59:58.807Z,5.00
2017-04-11T04:00:58.524Z,5.00
2017-04-11T04:01:58.341Z,5.10
2017-04-11T04:02:58.150Z,5.00
2017-04-11T04:03:57.952Z,5.10
2017-04-11T04:04:57.742Z,5.00
2017-04-11T04:05:57.458Z,5.00
2017-04-11T04:06:57.142Z,5.00
2017-04-11T04:07:56.818Z,5.00
2017-04-11T04:08:56.483Z,5.00
2017-04-11T04:09:56.190Z,5.00
2017-04-11T04:10:56.183Z,5.00
2017-04-11T04:11:55.944Z,5.00
2017-04-11T04:12:55.629Z,5.00
2017-04-11T04:13:55.328Z,5.00
2017-04-11T04:14:55.024Z,5.00
2017-04-11T04:15:54.932Z,5.10
2017-04-11T04:16:54.632Z,5.00
2017-04-11T04:17:54.329Z,5.10
2017-04-11T04:18:54.052Z,5.10
2017-04-11T04:19:53.772Z,5.10
2017-04-11T04:20:53.568Z,5.10
2017-04-11T04:21:53.307Z,5.10
2017-04-11T04:22:53.149Z,5.10
2017-04-11T04:23:52.926Z,5.10
2017-04-11T04:24:52.644Z,5.10
2017-04-11T04:25:52.346Z,5.10
2017-04-11T04:26:52.077Z,5.10
2017-04-11T04:27:51.791Z,5.10
2017-04-11T04:28:51.492Z,5.10
2017-04-11T04:29:51.193Z,5.10
2017-04-11T04:30:50.874Z,5.00
2017-04-11T04:31:50.594Z,5.10
2017-04-11T04:32:50.603Z,5.10
2017-04-11T04:33:50.349Z,5.10
2017-04-11T04:34:50.116Z,5.10
2017-04-11T04:35:49.915Z,5.10
2017-04-11T04:36:49.639Z,5.10
2017-04-11T04:37:49.317Z,5.00
2017-04-11T04:38:48.996Z,5.10
2017-04-11T04:39:49.019Z,5.10
2017-04-11T04:40:48.723Z,5.10
2017-04-11T04:41:48.429Z,5.10
2017-04-11T04:42:48.156Z,5.10
2017-04-11T04:43:47.940Z,5.00
2017-04-11T04:44:47.647Z,5.10
2017-04-11T04:45:47.522Z,5.10
2017-04-11T04:46:47.256Z,5.10
2017-04-11T04:47:46.939Z,5.10
2017-04-11T04:48:47.051Z,5.10
2017-04-11T04:49:46.746Z,5.10
2017-04-11T04:50:46.465Z,5.10
2017-04-11T04:51:46.179Z,5.10
2017-04-11T04:52:45.864Z,5.10
2017-04-11T04:53:45.558Z,5.10
2017-04-11T04:54:45.302Z,5.10
2017-04-11T04:55:45.056Z,5.10
2017-04-11T04:56:44.787Z,5.10
2017-04-11T04:57:44.517Z,5.10
2017-04-11T04:58:44.239Z,5.10
2017-04-11T04:59:43.934Z,5.10
2017-04-11T05:00:43.656Z,5.20
2017-04-11T05:01:43.356Z,5.10
2017-04-11T05:02:43.052Z,5.10
2017-04-11T05:03:42.848Z,5.20
2017-04-11T05:04:42.625Z,5.20
2017-04-11T05:05:42.403Z,5.20
2017-04-11T05:06:42.320Z,5.20
2017-04-11T05:07:42.056Z,5.30
2017-04-11T05:08:42.043Z,5.30
2017-04-11T05:09:41.837Z,5.30
2017-04-11T05:10:41.623Z,5.30
2017-04-11T05:11:41.357Z,5.40
2017-04-11T05:12:41.084Z,5.40
2017-04-11T05:13:40.856Z,5.40
2017-04-11T05:14:40.580Z,5.40
2017-04-11T05:15:40.357Z,5.50
2017-04-11T05:16:40.090Z,5.50
2017-04-11T05:17:39.832Z,5.50
2017-04-11T05:18:39.620Z,5.60
2017-04-11T05:19:39.297Z,5.60
2017-04-11T05:20:39.084Z,5.60
2017-04-11T05:21:38.779Z,5.60
2017-04-11T05:22:38.498Z,5.60
2017-04-11T05:23:38.242Z,5.60
2017-04-11T05:24:37.941Z,5.70
2017-04-11T05:25:38.152Z,5.70
2017-04-11T05:26:39.184Z,5.70
2017-04-11T05:27:38.958Z,5.80
2017-04-11T05:28:38.643Z,5.80
2017-04-11T05:29:39.174Z,5.80
2017-04-11T05:30:38.923Z,5.80
2017-04-11T05:31:40.370Z,5.90
2017-04-11T05:32:40.421Z,5.90
2017-04-11T05:33:41.278Z,5.90
2017-04-11T05:34:41.478Z,5.90
2017-04-11T05:35:41.224Z,6.00
2017-04-11T05:36:40.930Z,6.00
2017-04-11T05:37:40.763Z,6.10
2017-04-11T05:38:40.558Z,6.20
2017-04-11T05:39:40.321Z,6.20
2017-04-11T05:40:40.086Z,6.20
2017-04-11T05:41:39.751Z,6.30
2017-04-11T05:42:39.510Z,6.30
2017-04-11T05:43:39.183Z,6.40
2017-04-11T05:44:39.189Z,6.40
2017-04-11T05:45:38.875Z,6.40
2017-04-11T05:46:38.884Z,6.50
2017-04-11T05:47:38.635Z,6.50
2017-04-11T05:48:38.389Z,6.60
2017-04-11T05:49:38.110Z,6.70
2017-04-11T05:50:37.822Z,6.70
2017-04-11T05:51:39.171Z,6.80
2017-04-11T05:52:39.199Z,6.90
2017-04-11T05:53:38.984Z,6.90
2017-04-11T05:54:38.829Z,7.00
2017-04-11T05:55:38.574Z,7.10
2017-04-11T05:56:38.295Z,7.20
2017-04-11T05:57:38.146Z,7.20
2017-04-11T05:58:38.310Z,7.20
2017-04-11T05:59:38.038Z,7.20
2017-04-11T06:00:38.007Z,7.20
2017-04-11T06:01:37.760Z,7.20
2017-04-11T06:02:37.501Z,7.20
2017-04-11T06:03:37.620Z,7.20
2017-04-11T06:04:37.358Z,7.20
2017-04-11T06:05:37.049Z,7.20
2017-04-11T06:06:36.837Z,7.10
2017-04-11T06:07:36.664Z,7.10
2017-04-11T06:08:36.412Z,7.10
2017-04-11T06:09:36.155Z,7.10
2017-04-11T06:10:35.969Z,7.10
2017-04-11T06:11:35.670Z,7.10
2017-04-11T06:12:35.764Z,7.00
2017-04-11T06:13:35.614Z,7.00
2017-04-11T06:14:35.294Z,6.90
2017-04-11T06:15:35.426Z,6.80
2017-04-11T06:16:35.287Z,6.80
2017-04-11T06:17:39.687Z,6.80
2017-04-11T06:18:39.527Z,6.70
2017-04-11T06:19:39.916Z,6.80
2017-04-11T06:20:39.748Z,6.90
2017-04-11T06:21:39.708Z,6.90
2017-04-11T06:22:40.123Z,7.00
2017-04-11T06:23:39.975Z,7.00
2017-04-11T06:24:39.796Z,7.10
2017-04-11T06:25:39.548Z,7.10
2017-04-11T06:26:39.307Z,7.20
2017-04-11T06:27:39.041Z,7.30
2017-04-11T06:28:38.810Z,7.30
2017-04-11T06:29:38.588Z,7.40
2017-04-11T06:30:38.303Z,7.50
2017-04-11T06:31:38.320Z,7.60
2017-04-11T06:32:38.676Z,7.60
2017-04-11T06:33:38.557Z,7.80
2017-04-11T06:34:38.415Z,7.90
2017-04-11T06:35:38.250Z,8.10
2017-04-11T06:36:38.063Z,8.20
2017-04-11T06:37:38.120Z,8.30
2017-04-11T06:38:37.988Z,8.40
2017-04-11T06:39:37.784Z,8.40
2017-04-11T06:40:38.050Z,8.40
2017-04-11T06:41:38.295Z,8.50
2017-04-11T06:42:41.181Z,8.50
2017-04-11T06:43:40.952Z,8.60
2017-04-11T06:44:41.039Z,8.70
2017-04-11T06:45:40.938Z,8.80
2017-04-11T06:46:40.734Z,8.80
2017-04-11T06:47:44.510Z,8.90
2017-04-11T06:48:44.293Z,8.90
2017-04-11T06:49:44.078Z,9.00
2017-04-11T06:50:43.814Z,9.10
2017-04-11T06:51:43.626Z,9.10
2017-04-11T06:52:43.396Z,9.10
2017-04-11T06:53:43.164Z,9.10
2017-04-11T06:54:42.916Z,9.20
2017-04-11T06:55:42.686Z,9.30
2017-04-11T06:56:42.403Z,9.40
2017-04-11T06:57:42.225Z,9.60
2017-04-11T06:58:42.047Z,9.60
2017-04-11T06:59:41.809Z,9.70
2017-04-11T07:00:41.655Z,9.60
2017-04-11T07:01:41.481Z,9.70
2017-04-11T07:02:41.522Z,10.00
2017-04-11T07:03:41.493Z,10.10
2017-04-11T07:04:41.524Z,10.40
2017-04-11T07:05:41.759Z,11.20
2017-04-11T07:06:41.670Z,12.20
2017-04-11T07:07:42.022Z,13.20
2017-04-11T07:08:42.702Z,14.20
2017-04-11T07:09:42.815Z,15.20
2017-04-11T07:10:42.590Z,16.10
2017-04-11T07:11:42.386Z,16.90
2017-04-11T07:12:42.327Z,17.80
2017-04-11T07:13:42.185Z,18.60
2017-04-11T07:14:41.987Z,19.10
2017-04-11T07:15:41.807Z,19.30
2017-04-11T07:16:41.614Z,19.30
2017-04-11T07:17:41.549Z,19.20
2017-04-11T07:18:41.812Z,19.00
2017-04-11T07:19:41.562Z,19.40
2017-04-11T07:20:41.406Z,19.90
2017-04-11T07:21:41.155Z,20.40
2017-04-11T07:22:41.826Z,20.40
2017-04-11T07:23:41.613Z,20.80
2017-04-11T07:24:41.444Z,21.20
2017-04-11T07:25:41.128Z,21.60
2017-04-11T07:26:40.883Z,22.00
2017-04-11T07:27:40.671Z,22.30
2017-04-11T07:28:40.845Z,22.80
2017-04-11T07:29:40.569Z,23.50
2017-04-11T07:30:41.583Z,23.90
2017-04-11T07:31:41.452Z,24.60
2017-04-11T07:32:41.706Z,25.00
2017-04-11T07:33:41.636Z,25.60
2017-04-11T07:34:41.447Z,26.30
2017-04-11T07:35:41.185Z,26.60
2017-04-11T07:36:40.892Z,26.90
2017-04-11T07:37:40.653Z,27.20
2017-04-11T07:38:40.441Z,27.50
2017-04-11T07:39:40.297Z,27.70
2017-04-11T07:40:40.307Z,28.20
2017-04-11T07:41:40.133Z,28.90
2017-04-11T07:42:39.870Z,29.50
2017-04-11T07:43:39.585Z,30.00
2017-04-11T07:44:39.341Z,29.80
2017-04-11T07:45:39.134Z,29.60
2017-04-11T07:46:38.841Z,29.50
2017-04-11T07:47:38.592Z,29.60
2017-04-11T07:48:38.311Z,29.60
2017-04-11T07:49:38.140Z,29.80
2017-04-11T07:50:37.876Z,29.30
2017-04-11T07:51:38.263Z,28.60
2017-04-11T07:52:38.070Z,28.10
2017-04-11T07:53:38.228Z,28.20
2017-04-11T07:54:38.292Z,28.50
2017-04-11T07:55:38.513Z,28.90
2017-04-11T07:56:38.301Z,29.30
2017-04-11T07:57:38.100Z,29.90
2017-04-11T07:58:37.879Z,30.30
2017-04-11T07:59:37.608Z,30.50
2017-04-11T08:00:37.393Z,30.90
2017-04-11T08:01:37.457Z,30.90
2017-04-11T08:02:37.976Z,30.00
2017-04-11T08:03:37.777Z,28.40
2017-04-11T08:04:37.651Z,27.60
2017-04-11T08:05:37.432Z,27.90
2017-04-11T08:06:37.253Z,28.50
2017-04-11T08:07:37.054Z,29.10
2017-04-11T08:08:38.122Z,29.50
2017-04-11T08:09:37.959Z,29.50
2017-04-11T08:10:37.717Z,29.70
2017-04-11T08:11:37.699Z,29.60
2017-04-11T08:12:37.541Z,29.40
2017-04-11T08:13:37.382Z,28.70
2017-04-11T08:14:38.097Z,28.60
2017-04-11T08:15:38.026Z,29.10
2017-04-11T08:16:38.300Z,29.10
2017-04-11T08:17:38.075Z,28.90
2017-04-11T08:18:41.457Z,28.40
2017-04-11T08:19:41.539Z,28.40
2017-04-11T08:20:42.394Z,28.80
2017-04-11T08:21:42.297Z,29.30
2017-04-11T08:22:42.180Z,30.00
2017-04-11T08:23:42.221Z,30.70
2017-04-11T08:24:42.262Z,31.40
2017-04-11T08:25:42.172Z,32.20
2017-04-11T08:26:41.912Z,32.10
2017-04-11T08:27:41.655Z,31.20
2017-04-11T08:28:41.368Z,30.00
2017-04-11T08:29:41.805Z,29.00
2017-04-11T08:30:41.568Z,29.20
2017-04-11T08:31:41.312Z,30.10
2017-04-11T08:32:41.057Z,30.60
2017-04-11T08:33:40.779Z,31.20
2017-04-11T08:34:40.509Z,31.70
2017-04-11T08:35:40.281Z,32.50
2017-04-11T08:36:40.178Z,33.50
2017-04-11T08:37:40.002Z,34.00
2017-04-11T08:38:39.766Z,33.80
2017-04-11T08:39:39.587Z,33.20
2017-04-11T08:40:39.683Z,32.90
2017-04-11T08:41:40.003Z,32.90
2017-04-11T08:42:39.773Z,33.60
2017-04-11T08:43:40.557Z,34.60
2017-04-11T08:44:41.171Z,35.70
2017-04-11T08:45:41.345Z,36.60
2017-04-11T08:46:41.128Z,37.10
2017-04-11T08:47:40.894Z,37.10
2017-04-11T08:48:40.659Z,35.90
2017-04-11T08:49:40.389Z,35.50
2017-04-11T08:50:40.183Z,35.80
2017-04-11T08:51:39.980Z,36.40
2017-04-11T08:52:39.853Z,37.30
2017-04-11T08:53:39.583Z,37.40
2017-04-11T08:54:39.597Z,37.80
2017-04-11T08:55:40.473Z,38.60
2017-04-11T08:56:40.688Z,39.60
2017-04-11T08:57:41.466Z,40.40
2017-04-11T08:58:41.372Z,40.80
2017-04-11T08:59:41.170Z,41.30
2017-04-11T09:00:41.236Z,41.70
2017-04-11T09:01:41.453Z,41.80
2017-04-11T09:02:41.728Z,42.10
2017-04-11T09:03:41.981Z,42.00
2017-04-11T09:04:42.028Z,42.10
2017-04-11T09:05:42.175Z,42.60
2017-04-11T09:06:42.213Z,43.20
2017-04-11T09:07:42.440Z,43.20
2017-04-11T09:08:43.770Z,43.00
2017-04-11T09:09:46.247Z,43.10
2017-04-11T09:10:46.904Z,43.30
2017-04-11T09:11:47.013Z,43.50
2017-04-11T09:12:47.734Z,43.50
2017-04-11T09:13:49.122Z,43.60
2017-04-11T09:14:49.061Z,43.90
2017-04-11T09:15:49.857Z,44.20
2017-04-11T09:16:52.218Z,44.50
2017-04-11T09:17:52.351Z,44.70
2017-04-11T09:18:52.876Z,44.80
2017-04-11T09:19:52.781Z,44.80
2017-04-11T09:20:52.727Z,45.10
2017-04-11T09:21:53.663Z,45.00
2017-04-11T09:22:53.517Z,44.80
2017-04-11T09:23:53.725Z,44.80
2017-04-11T09:24:54.031Z,44.00
2017-04-11T09:25:54.120Z,43.90
2017-04-11T09:26:54.019Z,44.00
2017-04-11T09:27:53.908Z,44.20
2017-04-11T09:28:54.044Z,44.10
2017-04-11T09:29:54.259Z,44.40
2017-04-11T09:30:55.396Z,44.30
2017-04-11T09:31:55.574Z,44.10
2017-04-11T09:32:55.533Z,43.90
2017-04-11T09:33:55.406Z,43.70
2017-04-11T09:34:55.354Z,43.90
2017-04-11T09:35:55.834Z,43.70
2017-04-11T09:36:55.879Z,42.60
2017-04-11T09:37:59.393Z,42.20
2017-04-11T09:38:59.149Z,41.60
2017-04-11T09:40:04.461Z,41.20
2017-04-11T09:41:04.221Z,41.40
2017-04-11T09:42:04.493Z,41.20
2017-04-11T09:43:04.678Z,41.40
2017-04-11T09:44:05.797Z,42.00
2017-04-11T09:45:05.716Z,42.10
2017-04-11T09:46:05.600Z,41.70
2017-04-11T09:47:05.462Z,41.50
2017-04-11T09:48:05.283Z,41.70
2017-04-11T09:49:05.062Z,41.60
2017-04-11T09:50:05.032Z,41.40
2017-04-11T09:51:04.825Z,41.10
2017-04-11T09:52:04.587Z,41.10
2017-04-11T09:53:04.483Z,40.80
2017-04-11T09:54:04.357Z,41.00
2017-04-11T09:55:04.272Z,41.70
2017-04-11T09:56:04.552Z,42.00
2017-04-11T09:57:04.522Z,42.00
2017-04-11T09:58:04.302Z,40.90
2017-04-11T09:59:04.454Z,39.10
2017-04-11T10:00:04.446Z,37.30
2017-04-11T10:01:04.335Z,37.00
2017-04-11T10:02:04.344Z,37.70
2017-04-11T10:03:05.381Z,38.30
2017-04-11T10:04:05.209Z,38.20
2017-04-11T10:05:06.804Z,37.80
2017-04-11T10:06:06.617Z,37.20
2017-04-11T10:07:10.970Z,36.50
2017-04-11T10:08:11.566Z,35.60
2017-04-11T10:09:11.848Z,35.20
2017-04-11T10:10:11.625Z,35.10
2017-04-11T10:11:11.664Z,34.10
2017-04-11T10:12:11.591Z,33.30
2017-04-11T10:13:12.199Z,32.30
2017-04-11T10:14:12.226Z,31.50
2017-04-11T10:15:12.055Z,31.60
2017-04-11T10:16:11.954Z,32.50
2017-04-11T10:17:11.744Z,33.50
2017-04-11T10:18:11.546Z,34.30
2017-04-11T10:19:11.340Z,34.60
2017-04-11T10:20:11.124Z,34.70
2017-04-11T10:21:10.896Z,34.50
2017-04-11T10:22:11.286Z,34.50
2017-04-11T10:23:11.053Z,34.10
2017-04-11T10:24:11.617Z,33.80
2017-04-11T10:25:11.408Z,34.40
2017-04-11T10:26:11.205Z,33.90
2017-04-11T10:27:10.918Z,33.10
2017-04-11T10:28:10.748Z,32.50
2017-04-11T10:29:10.516Z,33.40
2017-04-11T10:30:10.671Z,35.00
2017-04-11T10:31:10.614Z,36.80
2017-04-11T10:32:15.297Z,38.40
2017-04-11T10:33:15.122Z,38.80
2017-04-11T10:34:15.129Z,39.30
2017-04-11T10:35:15.011Z,39.90
2017-04-11T10:36:14.867Z,39.80
2017-04-11T10:37:14.612Z,39.00
2017-04-11T10:38:14.392Z,39.60
2017-04-11T10:39:14.187Z,40.50
2017-04-11T10:40:15.178Z,41.50
2017-04-11T10:41:15.093Z,41.90
2017-04-11T10:42:15.032Z,42.40
2017-04-11T10:43:14.924Z,42.20
2017-04-11T10:44:14.928Z,42.20
2017-04-11T10:45:14.682Z,41.60
2017-04-11T10:46:14.479Z,39.90
2017-04-11T10:47:14.278Z,38.20
2017-04-11T10:48:14.098Z,37.50
2017-04-11T10:49:13.859Z,36.30
2017-04-11T10:54:25.802Z,22.80
2017-04-11T10:55:25.123Z,20.30
2017-04-11T10:56:24.257Z,20.10
2017-04-11T10:59:42.751Z,20.20
2017-04-11T11:00:41.700Z,22.10
2017-04-11T11:02:16.571Z,22.00
2017-04-11T11:04:55.973Z,21.90
2017-04-11T11:08:16.989Z,22.80
2017-04-11T11:19:02.978Z,23.30
2017-04-11T11:20:02.765Z,23.30
2017-04-11T11:21:02.901Z,23.30
2017-04-11T11:23:22.378Z,23.30
2017-04-11T11:24:22.325Z,23.30
2017-04-11T11:25:21.249Z,23.30
2017-04-11T11:26:21.176Z,23.40
2017-04-11T11:27:47.803Z,23.40
2017-04-11T11:28:47.071Z,23.40
2017-04-11T11:29:45.984Z,23.30
2017-04-11T11:30:45.130Z,23.20
2017-04-11T11:31:44.067Z,23.20
2017-04-11T11:34:41.600Z,23.50
2017-04-11T11:36:05.160Z,23.60
2017-04-11T11:37:04.166Z,23.70
2017-04-11T11:38:05.264Z,23.70
2017-04-11T11:39:04.409Z,23.70
2017-04-11T11:43:24.475Z,23.70
2017-04-11T13:20:54.729Z,22.50
2017-04-11T13:21:54.426Z,22.80
2017-04-11T13:22:53.893Z,22.90
2017-04-11T13:23:52.830Z,22.90
2017-04-11T13:24:52.256Z,22.90
2017-04-11T13:25:51.757Z,22.90
2017-04-11T13:26:50.669Z,22.90
2017-04-11T13:27:50.198Z,23.00
2017-04-11T13:28:49.609Z,22.80
2017-04-11T13:29:49.191Z,22.60
2017-04-11T13:30:48.288Z,22.40
2017-04-11T13:31:48.047Z,22.20
2017-04-11T13:32:46.946Z,22.20
2017-04-11T13:33:45.799Z,22.10
2017-04-11T13:34:45.605Z,22.00
2017-04-11T13:35:45.011Z,22.00
2017-04-11T13:36:44.409Z,22.00
2017-04-11T13:37:43.392Z,21.90
2017-04-11T13:38:42.471Z,21.90
2017-04-11T13:39:41.741Z,21.90
2017-04-11T13:40:40.730Z,21.80
2017-04-11T13:41:39.684Z,21.90
2017-04-11T13:42:38.547Z,21.90
2017-04-11T13:43:37.834Z,21.90
2017-04-11T13:44:37.052Z,21.90
2017-04-11T13:45:35.940Z,21.80
2017-04-11T13:46:34.832Z,21.80
2017-04-11T13:47:33.837Z,21.80
2017-04-11T13:48:34.033Z,21.90
2017-04-11T13:49:33.474Z,21.90
2017-04-11T13:50:32.340Z,21.90
2017-04-11T13:51:31.202Z,22.00
2017-04-11T13:52:30.181Z,22.00
2017-04-11T13:53:29.072Z,22.00
2017-04-11T13:54:27.945Z,22.10
2017-04-11T13:55:26.892Z,22.20
2017-04-11T13:56:25.810Z,22.20
2017-04-11T13:57:25.076Z,22.20
2017-04-11T13:58:24.008Z,22.20
2017-04-11T13:59:23.011Z,22.30
2017-04-11T14:00:21.873Z,22.20
2017-04-11T14:01:20.781Z,22.20
2017-04-11T14:02:20.627Z,22.20
2017-04-11T14:03:19.530Z,22.20
2017-04-11T14:04:18.487Z,22.20
2017-04-11T14:05:17.447Z,22.20
2017-04-11T14:06:16.321Z,22.20
2017-04-11T14:07:15.303Z,22.10
2017-04-11T14:08:14.213Z,22.10
2017-04-11T14:09:13.115Z,22.00
2017-04-11T14:10:12.101Z,22.00
2017-04-11T14:11:11.088Z,22.00
2017-04-11T14:12:10.178Z,22.10
2017-04-11T14:13:09.150Z,21.90
2017-04-11T14:14:08.131Z,21.80
